sensor_id;sensor_type;location;lat;lon;timestamp;temperature;humidity
27645;DHT22;15054;57.152;-2.118;2022-08-27T00:01:20;14.30;99.90
27645;DHT22;15054;57.152;-2.118;2022-08-27T00:03:48;14.20;99.90
27645;DHT22;15054;57.152;-2.118;2022-08-27T00:06:19;14.20;99.90
27645;DHT22;15054;57.152;-2.118;2022-08-27T00:08:48;14.30;99.90
27645;DHT22;15054;57.152;-2.118;2022-08-27T00:11:17;14.20;99.90
27645;DHT22;15054;57.152;-2.118;2022-08-27T00:13:45;14.20;99.90
27645;DHT22;15054;57.152;-2.118;2022-08-27T00:16:15;14.20;99.90
27645;DHT22;15054;57.152;-2.118;2022-08-27T00:18:44;14.20;99.90
27645;DHT22;15054;57.152;-2.118;2022-08-27T00:21:15;14.20;99.90
27645;DHT22;15054;57.152;-2.118;2022-08-27T00:23:43;14.20;99.90
27645;DHT22;15054;57.152;-2.118;2022-08-27T00:26:11;14.20;99.90
27645;DHT22;15054;57.152;-2.118;2022-08-27T00:28:38;14.20;99.90
27645;DHT22;15054;57.152;-2.118;2022-08-27T00:31:06;14.20;99.90
27645;DHT22;15054;57.152;-2.118;2022-08-27T00:33:38;14.20;99.90
27645;DHT22;15054;57.152;-2.118;2022-08-27T00:36:05;14.20;99.90
27645;DHT22;15054;57.152;-2.118;2022-08-27T00:38:33;14.10;99.90
27645;DHT22;15054;57.152;-2.118;2022-08-27T00:41:00;14.10;99.90
27645;DHT22;15054;57.152;-2.118;2022-08-27T00:43:31;14.20;99.90
27645;DHT22;15054;57.152;-2.118;2022-08-27T00:46:19;14.20;99.90
27645;DHT22;15054;57.152;-2.118;2022-08-27T00:48:51;14.20;99.90
27645;DHT22;15054;57.152;-2.118;2022-08-27T00:51:19;14.20;99.90
27645;DHT22;15054;57.152;-2.118;2022-08-27T00:53:48;14.20;99.90
27645;DHT22;15054;57.152;-2.118;2022-08-27T00:56:39;14.20;99.90
27645;DHT22;15054;57.152;-2.118;2022-08-27T00:59:20;14.20;99.90
27645;DHT22;15054;57.152;-2.118;2022-08-27T01:01:48;14.20;99.90
27645;DHT22;15054;57.152;-2.118;2022-08-27T01:04:35;14.10;99.90
27645;DHT22;15054;57.152;-2.118;2022-08-27T01:07:04;14.20;99.90
27645;DHT22;15054;57.152;-2.118;2022-08-27T01:09:32;14.10;99.90
27645;DHT22;15054;57.152;-2.118;2022-08-27T01:12:00;14.10;99.90
27645;DHT22;15054;57.152;-2.118;2022-08-27T01:14:27;14.00;99.90
27645;DHT22;15054;57.152;-2.118;2022-08-27T01:16:56;14.00;99.90
27645;DHT22;15054;57.152;-2.118;2022-08-27T01:19:49;14.00;99.90
27645;DHT22;15054;57.152;-2.118;2022-08-27T01:22:35;14.00;99.90
27645;DHT22;15054;57.152;-2.118;2022-08-27T01:25:12;14.00;99.90
27645;DHT22;15054;57.152;-2.118;2022-08-27T01:27:40;14.00;99.90
27645;DHT22;15054;57.152;-2.118;2022-08-27T01:30:11;14.00;99.90
27645;DHT22;15054;57.152;-2.118;2022-08-27T01:32:39;14.00;99.90
27645;DHT22;15054;57.152;-2.118;2022-08-27T01:35:09;13.90;99.90
27645;DHT22;15054;57.152;-2.118;2022-08-27T01:37:37;13.90;99.90
27645;DHT22;15054;57.152;-2.118;2022-08-27T01:40:05;13.90;99.90
27645;DHT22;15054;57.152;-2.118;2022-08-27T01:42:37;13.90;99.90
27645;DHT22;15054;57.152;-2.118;2022-08-27T01:45:07;13.80;99.90
27645;DHT22;15054;57.152;-2.118;2022-08-27T01:47:36;13.80;99.90
27645;DHT22;15054;57.152;-2.118;2022-08-27T01:50:07;13.80;99.90
27645;DHT22;15054;57.152;-2.118;2022-08-27T01:52:34;13.80;99.90
27645;DHT22;15054;57.152;-2.118;2022-08-27T01:55:04;13.80;99.90
27645;DHT22;15054;57.152;-2.118;2022-08-27T01:57:32;13.70;99.90
27645;DHT22;15054;57.152;-2.118;2022-08-27T02:00:07;13.70;99.90
27645;DHT22;15054;57.152;-2.118;2022-08-27T02:02:38;13.70;99.90
27645;DHT22;15054;57.152;-2.118;2022-08-27T02:05:06;13.80;99.90
27645;DHT22;15054;57.152;-2.118;2022-08-27T02:07:33;13.80;99.90
27645;DHT22;15054;57.152;-2.118;2022-08-27T02:10:00;13.80;99.90
27645;DHT22;15054;57.152;-2.118;2022-08-27T02:12:27;13.80;99.90
27645;DHT22;15054;57.152;-2.118;2022-08-27T02:14:54;13.80;99.90
27645;DHT22;15054;57.152;-2.118;2022-08-27T02:17:21;13.80;99.90
27645;DHT22;15054;57.152;-2.118;2022-08-27T02:19:49;13.80;99.90
27645;DHT22;15054;57.152;-2.118;2022-08-27T02:22:16;13.80;99.90
27645;DHT22;15054;57.152;-2.118;2022-08-27T02:24:43;13.80;99.90
27645;DHT22;15054;57.152;-2.118;2022-08-27T02:27:11;13.90;99.90
27645;DHT22;15054;57.152;-2.118;2022-08-27T02:29:38;13.90;99.90
27645;DHT22;15054;57.152;-2.118;2022-08-27T02:32:06;13.90;99.90
27645;DHT22;15054;57.152;-2.118;2022-08-27T02:34:43;13.90;99.90
27645;DHT22;15054;57.152;-2.118;2022-08-27T02:37:10;13.90;99.90
27645;DHT22;15054;57.152;-2.118;2022-08-27T02:39:37;14.00;99.90
27645;DHT22;15054;57.152;-2.118;2022-08-27T02:42:10;14.00;99.90
27645;DHT22;15054;57.152;-2.118;2022-08-27T02:44:37;14.00;99.90
27645;DHT22;15054;57.152;-2.118;2022-08-27T02:47:05;14.00;99.90
27645;DHT22;15054;57.152;-2.118;2022-08-27T02:49:32;14.00;99.90
27645;DHT22;15054;57.152;-2.118;2022-08-27T02:52:00;14.00;99.90
27645;DHT22;15054;57.152;-2.118;2022-08-27T02:54:27;14.00;99.90
27645;DHT22;15054;57.152;-2.118;2022-08-27T02:56:54;14.00;99.90
27645;DHT22;15054;57.152;-2.118;2022-08-27T02:59:21;14.00;99.90
27645;DHT22;15054;57.152;-2.118;2022-08-27T03:01:49;14.00;99.90
27645;DHT22;15054;57.152;-2.118;2022-08-27T03:04:17;14.10;99.90
27645;DHT22;15054;57.152;-2.118;2022-08-27T03:06:46;14.10;99.90
27645;DHT22;15054;57.152;-2.118;2022-08-27T03:09:13;14.10;99.90
27645;DHT22;15054;57.152;-2.118;2022-08-27T03:11:41;14.10;99.90
27645;DHT22;15054;57.152;-2.118;2022-08-27T03:14:08;14.10;99.90
27645;DHT22;15054;57.152;-2.118;2022-08-27T03:16:36;14.10;99.90
27645;DHT22;15054;57.152;-2.118;2022-08-27T03:19:05;14.10;99.90
27645;DHT22;15054;57.152;-2.118;2022-08-27T03:21:34;14.10;99.90
27645;DHT22;15054;57.152;-2.118;2022-08-27T03:24:02;14.10;99.90
27645;DHT22;15054;57.152;-2.118;2022-08-27T03:26:37;14.10;99.90
27645;DHT22;15054;57.152;-2.118;2022-08-27T03:29:05;14.10;99.90
27645;DHT22;15054;57.152;-2.118;2022-08-27T03:31:33;14.10;99.90
27645;DHT22;15054;57.152;-2.118;2022-08-27T03:34:03;14.00;99.90
27645;DHT22;15054;57.152;-2.118;2022-08-27T03:36:32;14.00;99.90
27645;DHT22;15054;57.152;-2.118;2022-08-27T03:38:59;14.00;99.90
27645;DHT22;15054;57.152;-2.118;2022-08-27T03:41:27;14.00;99.90
27645;DHT22;15054;57.152;-2.118;2022-08-27T03:44:14;14.00;99.90
27645;DHT22;15054;57.152;-2.118;2022-08-27T03:46:48;14.00;99.90
27645;DHT22;15054;57.152;-2.118;2022-08-27T03:49:17;14.00;99.90
27645;DHT22;15054;57.152;-2.118;2022-08-27T03:51:48;14.00;99.90
27645;DHT22;15054;57.152;-2.118;2022-08-27T03:54:16;14.00;99.90
27645;DHT22;15054;57.152;-2.118;2022-08-27T03:56:43;14.00;99.90
27645;DHT22;15054;57.152;-2.118;2022-08-27T03:59:14;14.00;99.90
27645;DHT22;15054;57.152;-2.118;2022-08-27T04:01:42;14.00;99.90
27645;DHT22;15054;57.152;-2.118;2022-08-27T04:04:10;14.00;99.90
27645;DHT22;15054;57.152;-2.118;2022-08-27T04:06:39;14.00;99.90
27645;DHT22;15054;57.152;-2.118;2022-08-27T04:09:07;14.00;99.90
27645;DHT22;15054;57.152;-2.118;2022-08-27T04:11:35;14.00;99.90
27645;DHT22;15054;57.152;-2.118;2022-08-27T04:14:04;14.00;99.90
27645;DHT22;15054;57.152;-2.118;2022-08-27T04:16:49;14.00;99.90
27645;DHT22;15054;57.152;-2.118;2022-08-27T04:19:18;14.00;99.90
27645;DHT22;15054;57.152;-2.118;2022-08-27T04:21:49;14.00;99.90
27645;DHT22;15054;57.152;-2.118;2022-08-27T04:24:16;14.00;99.90
27645;DHT22;15054;57.152;-2.118;2022-08-27T04:26:44;14.00;99.90
27645;DHT22;15054;57.152;-2.118;2022-08-27T04:29:13;14.00;99.90
27645;DHT22;15054;57.152;-2.118;2022-08-27T04:31:40;14.00;99.90
27645;DHT22;15054;57.152;-2.118;2022-08-27T04:34:08;14.00;99.90
27645;DHT22;15054;57.152;-2.118;2022-08-27T04:36:35;14.00;99.90
27645;DHT22;15054;57.152;-2.118;2022-08-27T04:39:02;13.90;99.90
27645;DHT22;15054;57.152;-2.118;2022-08-27T04:41:30;13.90;99.90
27645;DHT22;15054;57.152;-2.118;2022-08-27T04:44:04;13.90;99.90
27645;DHT22;15054;57.152;-2.118;2022-08-27T04:46:38;13.90;99.90
27645;DHT22;15054;57.152;-2.118;2022-08-27T04:49:11;13.90;99.90
27645;DHT22;15054;57.152;-2.118;2022-08-27T04:51:41;13.90;99.90
27645;DHT22;15054;57.152;-2.118;2022-08-27T04:54:09;13.90;99.90
27645;DHT22;15054;57.152;-2.118;2022-08-27T04:56:37;13.90;99.90
27645;DHT22;15054;57.152;-2.118;2022-08-27T04:59:06;13.90;99.90
27645;DHT22;15054;57.152;-2.118;2022-08-27T05:01:36;13.90;99.90
27645;DHT22;15054;57.152;-2.118;2022-08-27T05:04:04;13.90;99.90
27645;DHT22;15054;57.152;-2.118;2022-08-27T05:06:33;13.80;99.90
27645;DHT22;15054;57.152;-2.118;2022-08-27T05:09:00;13.80;99.90
27645;DHT22;15054;57.152;-2.118;2022-08-27T05:11:27;13.80;99.90
27645;DHT22;15054;57.152;-2.118;2022-08-27T05:13:58;13.80;99.90
27645;DHT22;15054;57.152;-2.118;2022-08-27T05:16:25;13.80;99.90
27645;DHT22;15054;57.152;-2.118;2022-08-27T05:18:52;13.70;99.90
27645;DHT22;15054;57.152;-2.118;2022-08-27T05:21:21;13.80;99.90
27645;DHT22;15054;57.152;-2.118;2022-08-27T05:23:49;13.80;99.90
27645;DHT22;15054;57.152;-2.118;2022-08-27T05:26:18;13.80;99.90
27645;DHT22;15054;57.152;-2.118;2022-08-27T05:28:45;13.90;99.90
27645;DHT22;15054;57.152;-2.118;2022-08-27T05:31:13;13.90;99.90
27645;DHT22;15054;57.152;-2.118;2022-08-27T05:33:42;13.90;99.90
27645;DHT22;15054;57.152;-2.118;2022-08-27T05:36:21;13.80;99.90
27645;DHT22;15054;57.152;-2.118;2022-08-27T05:38:48;13.80;99.90
27645;DHT22;15054;57.152;-2.118;2022-08-27T05:41:19;13.70;99.90
27645;DHT22;15054;57.152;-2.118;2022-08-27T05:43:47;13.70;99.90
27645;DHT22;15054;57.152;-2.118;2022-08-27T05:46:18;13.80;99.90
27645;DHT22;15054;57.152;-2.118;2022-08-27T05:48:47;13.80;99.90
27645;DHT22;15054;57.152;-2.118;2022-08-27T05:51:16;13.90;99.90
27645;DHT22;15054;57.152;-2.118;2022-08-27T05:54:06;13.90;99.90
27645;DHT22;15054;57.152;-2.118;2022-08-27T05:56:36;13.90;99.90
27645;DHT22;15054;57.152;-2.118;2022-08-27T05:59:05;14.00;99.90
27645;DHT22;15054;57.152;-2.118;2022-08-27T06:01:54;13.90;99.90
27645;DHT22;15054;57.152;-2.118;2022-08-27T06:04:22;14.00;99.90
27645;DHT22;15054;57.152;-2.118;2022-08-27T06:06:51;14.00;99.90
27645;DHT22;15054;57.152;-2.118;2022-08-27T06:09:24;14.00;99.90
27645;DHT22;15054;57.152;-2.118;2022-08-27T06:11:56;14.00;99.90
27645;DHT22;15054;57.152;-2.118;2022-08-27T06:14:24;14.00;99.90
27645;DHT22;15054;57.152;-2.118;2022-08-27T06:16:53;14.10;99.90
27645;DHT22;15054;57.152;-2.118;2022-08-27T06:19:22;14.10;99.90
27645;DHT22;15054;57.152;-2.118;2022-08-27T06:21:49;14.10;99.90
27645;DHT22;15054;57.152;-2.118;2022-08-27T06:24:28;14.10;99.90
27645;DHT22;15054;57.152;-2.118;2022-08-27T06:26:55;14.10;99.90
27645;DHT22;15054;57.152;-2.118;2022-08-27T06:29:23;14.20;99.90
27645;DHT22;15054;57.152;-2.118;2022-08-27T06:31:51;14.20;99.90
27645;DHT22;15054;57.152;-2.118;2022-08-27T06:34:21;14.20;99.90
27645;DHT22;15054;57.152;-2.118;2022-08-27T06:36:48;14.20;99.90
27645;DHT22;15054;57.152;-2.118;2022-08-27T06:39:15;14.20;99.90
27645;DHT22;15054;57.152;-2.118;2022-08-27T06:41:43;14.30;99.90
27645;DHT22;15054;57.152;-2.118;2022-08-27T06:44:13;14.30;99.90
27645;DHT22;15054;57.152;-2.118;2022-08-27T06:46:41;14.30;99.90
27645;DHT22;15054;57.152;-2.118;2022-08-27T06:49:10;14.30;99.90
27645;DHT22;15054;57.152;-2.118;2022-08-27T06:51:39;14.30;99.90
27645;DHT22;15054;57.152;-2.118;2022-08-27T06:54:08;14.30;99.90
27645;DHT22;15054;57.152;-2.118;2022-08-27T06:56:36;14.30;99.90
27645;DHT22;15054;57.152;-2.118;2022-08-27T06:59:06;14.30;99.90
27645;DHT22;15054;57.152;-2.118;2022-08-27T07:01:39;14.30;99.90
27645;DHT22;15054;57.152;-2.118;2022-08-27T07:04:11;14.30;99.90
27645;DHT22;15054;57.152;-2.118;2022-08-27T07:06:39;14.30;99.90
27645;DHT22;15054;57.152;-2.118;2022-08-27T07:09:07;14.30;99.90
27645;DHT22;15054;57.152;-2.118;2022-08-27T07:11:37;14.30;99.90
27645;DHT22;15054;57.152;-2.118;2022-08-27T07:14:20;14.20;99.90
27645;DHT22;15054;57.152;-2.118;2022-08-27T07:16:47;14.10;99.90
27645;DHT22;15054;57.152;-2.118;2022-08-27T07:19:18;14.00;99.90
27645;DHT22;15054;57.152;-2.118;2022-08-27T07:21:47;14.00;99.90
27645;DHT22;15054;57.152;-2.118;2022-08-27T07:24:14;14.00;99.90
27645;DHT22;15054;57.152;-2.118;2022-08-27T07:26:42;14.00;99.90
27645;DHT22;15054;57.152;-2.118;2022-08-27T07:29:12;14.00;99.90
27645;DHT22;15054;57.152;-2.118;2022-08-27T07:31:41;14.00;99.90
27645;DHT22;15054;57.152;-2.118;2022-08-27T07:34:10;14.00;99.90
27645;DHT22;15054;57.152;-2.118;2022-08-27T07:36:38;14.00;99.90
27645;DHT22;15054;57.152;-2.118;2022-08-27T07:39:07;13.90;99.90
27645;DHT22;15054;57.152;-2.118;2022-08-27T07:41:34;13.90;99.90
27645;DHT22;15054;57.152;-2.118;2022-08-27T07:44:25;13.90;99.90
27645;DHT22;15054;57.152;-2.118;2022-08-27T07:47:00;13.90;99.90
27645;DHT22;15054;57.152;-2.118;2022-08-27T07:49:28;13.90;99.90
27645;DHT22;15054;57.152;-2.118;2022-08-27T07:51:55;14.00;99.90
27645;DHT22;15054;57.152;-2.118;2022-08-27T07:54:23;13.90;99.90
27645;DHT22;15054;57.152;-2.118;2022-08-27T07:56:51;13.90;99.90
27645;DHT22;15054;57.152;-2.118;2022-08-27T07:59:22;13.90;99.90
27645;DHT22;15054;57.152;-2.118;2022-08-27T08:01:53;13.90;99.90
27645;DHT22;15054;57.152;-2.118;2022-08-27T08:04:22;14.00;99.90
27645;DHT22;15054;57.152;-2.118;2022-08-27T08:06:50;14.10;99.90
27645;DHT22;15054;57.152;-2.118;2022-08-27T08:09:18;14.10;99.90
27645;DHT22;15054;57.152;-2.118;2022-08-27T08:11:46;14.20;99.90
27645;DHT22;15054;57.152;-2.118;2022-08-27T08:14:13;14.20;99.90
27645;DHT22;15054;57.152;-2.118;2022-08-27T08:16:40;14.40;99.90
27645;DHT22;15054;57.152;-2.118;2022-08-27T08:19:08;14.50;99.90
27645;DHT22;15054;57.152;-2.118;2022-08-27T08:21:35;14.60;99.90
27645;DHT22;15054;57.152;-2.118;2022-08-27T08:28:16;14.60;99.90
27645;DHT22;15054;57.152;-2.118;2022-08-27T08:30:43;14.70;99.90
27645;DHT22;15054;57.152;-2.118;2022-08-27T08:33:12;14.70;99.90
27645;DHT22;15054;57.152;-2.118;2022-08-27T08:39:59;14.70;99.90
27645;DHT22;15054;57.152;-2.118;2022-08-27T08:47:18;15.00;99.90
27645;DHT22;15054;57.152;-2.118;2022-08-27T08:57:23;15.90;99.90
27645;DHT22;15054;57.152;-2.118;2022-08-27T09:00:10;16.10;99.90
27645;DHT22;15054;57.152;-2.118;2022-08-27T09:02:40;16.00;99.90
27645;DHT22;15054;57.152;-2.118;2022-08-27T09:05:12;15.90;99.90
27645;DHT22;15054;57.152;-2.118;2022-08-27T09:08:12;16.00;99.90
27645;DHT22;15054;57.152;-2.118;2022-08-27T09:13:52;16.00;99.90
27645;DHT22;15054;57.152;-2.118;2022-08-27T09:16:21;16.00;99.90
27645;DHT22;15054;57.152;-2.118;2022-08-27T09:18:49;16.00;99.90
27645;DHT22;15054;57.152;-2.118;2022-08-27T09:21:39;16.10;99.90
27645;DHT22;15054;57.152;-2.118;2022-08-27T09:26:51;16.40;99.90
27645;DHT22;15054;57.152;-2.118;2022-08-27T09:29:19;16.40;99.90
27645;DHT22;15054;57.152;-2.118;2022-08-27T09:34:34;16.40;99.90
27645;DHT22;15054;57.152;-2.118;2022-08-27T09:42:29;16.30;99.90
27645;DHT22;15054;57.152;-2.118;2022-08-27T09:44:58;16.20;99.90
27645;DHT22;15054;57.152;-2.118;2022-08-27T09:47:26;16.20;99.90
27645;DHT22;15054;57.152;-2.118;2022-08-27T09:50:06;16.00;99.90
27645;DHT22;15054;57.152;-2.118;2022-08-27T09:52:37;15.90;99.90
27645;DHT22;15054;57.152;-2.118;2022-08-27T09:55:11;15.80;99.90
27645;DHT22;15054;57.152;-2.118;2022-08-27T09:57:40;15.60;99.90
27645;DHT22;15054;57.152;-2.118;2022-08-27T10:00:15;15.80;99.90
27645;DHT22;15054;57.152;-2.118;2022-08-27T10:02:52;15.70;99.90
27645;DHT22;15054;57.152;-2.118;2022-08-27T10:05:35;15.70;99.90
27645;DHT22;15054;57.152;-2.118;2022-08-27T10:10:57;15.80;99.90
27645;DHT22;15054;57.152;-2.118;2022-08-27T10:13:27;16.00;99.90
27645;DHT22;15054;57.152;-2.118;2022-08-27T10:19:24;16.20;99.90
27645;DHT22;15054;57.152;-2.118;2022-08-27T10:30:43;16.80;99.90
27645;DHT22;15054;57.152;-2.118;2022-08-27T10:33:47;16.90;99.90
27645;DHT22;15054;57.152;-2.118;2022-08-27T10:36:22;17.00;99.90
27645;DHT22;15054;57.152;-2.118;2022-08-27T10:39:02;17.00;99.90
27645;DHT22;15054;57.152;-2.118;2022-08-27T10:41:34;17.20;99.90
27645;DHT22;15054;57.152;-2.118;2022-08-27T10:49:51;17.50;99.90
27645;DHT22;15054;57.152;-2.118;2022-08-27T10:52:42;17.50;99.90
27645;DHT22;15054;57.152;-2.118;2022-08-27T10:55:42;17.50;99.90
27645;DHT22;15054;57.152;-2.118;2022-08-27T11:04:21;17.30;99.90
27645;DHT22;15054;57.152;-2.118;2022-08-27T11:07:16;17.30;99.90
27645;DHT22;15054;57.152;-2.118;2022-08-27T11:10:13;17.40;99.90
27645;DHT22;15054;57.152;-2.118;2022-08-27T11:12:50;17.30;99.90
27645;DHT22;15054;57.152;-2.118;2022-08-27T11:15:23;17.20;99.90
27645;DHT22;15054;57.152;-2.118;2022-08-27T11:23:45;17.00;99.90
27645;DHT22;15054;57.152;-2.118;2022-08-27T11:26:14;17.00;99.90
27645;DHT22;15054;57.152;-2.118;2022-08-27T11:28:57;17.20;99.90
27645;DHT22;15054;57.152;-2.118;2022-08-27T11:37:00;17.00;99.90
27645;DHT22;15054;57.152;-2.118;2022-08-27T11:42:31;17.10;99.90
27645;DHT22;15054;57.152;-2.118;2022-08-27T11:48:01;17.60;99.90
27645;DHT22;15054;57.152;-2.118;2022-08-27T11:50:30;18.00;99.90
27645;DHT22;15054;57.152;-2.118;2022-08-27T11:53:03;18.00;99.90
27645;DHT22;15054;57.152;-2.118;2022-08-27T11:55:35;18.20;99.90
27645;DHT22;15054;57.152;-2.118;2022-08-27T12:00:41;18.20;99.90
27645;DHT22;15054;57.152;-2.118;2022-08-27T12:05:47;19.00;99.90
27645;DHT22;15054;57.152;-2.118;2022-08-27T12:13:49;19.60;99.90
27645;DHT22;15054;57.152;-2.118;2022-08-27T12:21:58;19.90;99.90
27645;DHT22;15054;57.152;-2.118;2022-08-27T12:27:33;19.40;99.90
27645;DHT22;15054;57.152;-2.118;2022-08-27T12:32:41;19.00;99.90
27645;DHT22;15054;57.152;-2.118;2022-08-27T12:35:30;19.00;99.90
27645;DHT22;15054;57.152;-2.118;2022-08-27T12:38:11;18.50;99.90
27645;DHT22;15054;57.152;-2.118;2022-08-27T12:43:20;18.30;99.90
27645;DHT22;15054;57.152;-2.118;2022-08-27T12:45:56;18.70;99.90
27645;DHT22;15054;57.152;-2.118;2022-08-27T12:48:27;19.00;99.90
27645;DHT22;15054;57.152;-2.118;2022-08-27T12:51:07;18.80;99.90
27645;DHT22;15054;57.152;-2.118;2022-08-27T12:53:38;18.80;99.90
27645;DHT22;15054;57.152;-2.118;2022-08-27T13:04:41;19.50;99.90
27645;DHT22;15054;57.152;-2.118;2022-08-27T13:07:09;19.60;99.90
27645;DHT22;15054;57.152;-2.118;2022-08-27T13:09:38;19.80;99.90
27645;DHT22;15054;57.152;-2.118;2022-08-27T13:12:14;19.70;99.90
27645;DHT22;15054;57.152;-2.118;2022-08-27T13:14:42;19.80;99.90
27645;DHT22;15054;57.152;-2.118;2022-08-27T13:17:17;19.70;99.90
27645;DHT22;15054;57.152;-2.118;2022-08-27T13:19:56;19.80;99.90
27645;DHT22;15054;57.152;-2.118;2022-08-27T13:22:37;19.60;99.90
27645;DHT22;15054;57.152;-2.118;2022-08-27T13:25:16;19.50;99.90
27645;DHT22;15054;57.152;-2.118;2022-08-27T13:27:58;19.50;99.90
27645;DHT22;15054;57.152;-2.118;2022-08-27T13:30:30;19.50;99.90
27645;DHT22;15054;57.152;-2.118;2022-08-27T13:33:04;19.50;99.90
27645;DHT22;15054;57.152;-2.118;2022-08-27T13:35:33;19.40;99.90
27645;DHT22;15054;57.152;-2.118;2022-08-27T13:38:01;18.80;99.90
27645;DHT22;15054;57.152;-2.118;2022-08-27T13:40:33;18.60;99.90
27645;DHT22;15054;57.152;-2.118;2022-08-27T13:43:08;18.80;99.90
27645;DHT22;15054;57.152;-2.118;2022-08-27T13:45:39;18.70;99.90
27645;DHT22;15054;57.152;-2.118;2022-08-27T13:48:11;18.70;99.90
27645;DHT22;15054;57.152;-2.118;2022-08-27T13:50:48;18.40;99.90
27645;DHT22;15054;57.152;-2.118;2022-08-27T13:53:21;18.30;99.90
27645;DHT22;15054;57.152;-2.118;2022-08-27T13:56:09;18.20;99.90
27645;DHT22;15054;57.152;-2.118;2022-08-27T13:58:36;18.20;99.90
27645;DHT22;15054;57.152;-2.118;2022-08-27T14:01:22;18.10;99.90
27645;DHT22;15054;57.152;-2.118;2022-08-27T14:06:30;17.80;99.90
27645;DHT22;15054;57.152;-2.118;2022-08-27T14:09:21;17.80;99.90
27645;DHT22;15054;57.152;-2.118;2022-08-27T14:12:03;18.00;99.90
27645;DHT22;15054;57.152;-2.118;2022-08-27T14:14:40;18.10;99.90
27645;DHT22;15054;57.152;-2.118;2022-08-27T14:17:21;18.10;99.90
27645;DHT22;15054;57.152;-2.118;2022-08-27T14:19:59;18.00;99.90
27645;DHT22;15054;57.152;-2.118;2022-08-27T14:22:27;17.80;99.90
27645;DHT22;15054;57.152;-2.118;2022-08-27T14:24:54;17.70;99.90
27645;DHT22;15054;57.152;-2.118;2022-08-27T14:27:22;17.60;99.90
27645;DHT22;15054;57.152;-2.118;2022-08-27T14:29:49;17.50;99.90
27645;DHT22;15054;57.152;-2.118;2022-08-27T14:32:16;17.60;99.90
27645;DHT22;15054;57.152;-2.118;2022-08-27T14:34:45;17.40;99.90
27645;DHT22;15054;57.152;-2.118;2022-08-27T14:37:13;17.30;99.90
27645;DHT22;15054;57.152;-2.118;2022-08-27T14:39:41;17.10;99.90
27645;DHT22;15054;57.152;-2.118;2022-08-27T14:42:10;17.20;99.90
27645;DHT22;15054;57.152;-2.118;2022-08-27T14:44:38;17.30;99.90
27645;DHT22;15054;57.152;-2.118;2022-08-27T14:47:06;17.30;99.90
27645;DHT22;15054;57.152;-2.118;2022-08-27T14:49:38;17.10;99.90
27645;DHT22;15054;57.152;-2.118;2022-08-27T14:52:07;17.20;99.90
27645;DHT22;15054;57.152;-2.118;2022-08-27T14:54:35;17.10;99.90
27645;DHT22;15054;57.152;-2.118;2022-08-27T14:57:04;17.10;99.90
27645;DHT22;15054;57.152;-2.118;2022-08-27T14:59:32;17.10;99.90
27645;DHT22;15054;57.152;-2.118;2022-08-27T15:02:03;17.00;99.90
27645;DHT22;15054;57.152;-2.118;2022-08-27T15:04:30;16.90;99.90
27645;DHT22;15054;57.152;-2.118;2022-08-27T15:06:58;16.80;99.90
27645;DHT22;15054;57.152;-2.118;2022-08-27T15:09:27;16.90;99.90
27645;DHT22;15054;57.152;-2.118;2022-08-27T15:11:55;16.90;99.90
27645;DHT22;15054;57.152;-2.118;2022-08-27T15:14:26;16.90;99.90
27645;DHT22;15054;57.152;-2.118;2022-08-27T15:16:54;16.90;99.90
27645;DHT22;15054;57.152;-2.118;2022-08-27T15:19:22;16.80;99.90
27645;DHT22;15054;57.152;-2.118;2022-08-27T15:21:51;16.70;99.90
27645;DHT22;15054;57.152;-2.118;2022-08-27T15:24:24;16.70;99.90
27645;DHT22;15054;57.152;-2.118;2022-08-27T15:26:54;16.70;99.90
27645;DHT22;15054;57.152;-2.118;2022-08-27T15:29:25;16.60;99.90
27645;DHT22;15054;57.152;-2.118;2022-08-27T15:31:53;16.60;99.90
27645;DHT22;15054;57.152;-2.118;2022-08-27T15:34:20;16.60;99.90
27645;DHT22;15054;57.152;-2.118;2022-08-27T15:36:47;16.50;99.90
27645;DHT22;15054;57.152;-2.118;2022-08-27T15:39:14;16.40;99.90
27645;DHT22;15054;57.152;-2.118;2022-08-27T15:41:42;16.50;99.90
27645;DHT22;15054;57.152;-2.118;2022-08-27T15:44:29;16.50;99.90
27645;DHT22;15054;57.152;-2.118;2022-08-27T15:46:56;16.60;99.90
27645;DHT22;15054;57.152;-2.118;2022-08-27T15:49:24;16.60;99.90
27645;DHT22;15054;57.152;-2.118;2022-08-27T15:51:51;16.60;99.90
27645;DHT22;15054;57.152;-2.118;2022-08-27T15:54:20;16.60;99.90
27645;DHT22;15054;57.152;-2.118;2022-08-27T15:56:47;16.60;99.90
27645;DHT22;15054;57.152;-2.118;2022-08-27T15:59:14;16.60;99.90
27645;DHT22;15054;57.152;-2.118;2022-08-27T16:01:42;16.70;99.90
27645;DHT22;15054;57.152;-2.118;2022-08-27T16:04:10;16.70;99.90
27645;DHT22;15054;57.152;-2.118;2022-08-27T16:06:38;16.60;99.90
27645;DHT22;15054;57.152;-2.118;2022-08-27T16:09:05;16.60;99.90
27645;DHT22;15054;57.152;-2.118;2022-08-27T16:11:32;16.60;99.90
27645;DHT22;15054;57.152;-2.118;2022-08-27T16:14:00;16.50;99.90
27645;DHT22;15054;57.152;-2.118;2022-08-27T16:16:30;16.50;99.90
27645;DHT22;15054;57.152;-2.118;2022-08-27T16:18:59;16.50;99.90
27645;DHT22;15054;57.152;-2.118;2022-08-27T16:21:28;16.40;99.90
27645;DHT22;15054;57.152;-2.118;2022-08-27T16:23:56;16.40;99.90
27645;DHT22;15054;57.152;-2.118;2022-08-27T16:26:23;16.40;99.90
27645;DHT22;15054;57.152;-2.118;2022-08-27T16:28:50;16.40;99.90
27645;DHT22;15054;57.152;-2.118;2022-08-27T16:31:17;16.40;99.90
27645;DHT22;15054;57.152;-2.118;2022-08-27T16:33:45;16.50;99.90
27645;DHT22;15054;57.152;-2.118;2022-08-27T16:36:12;16.40;99.90
27645;DHT22;15054;57.152;-2.118;2022-08-27T16:38:40;16.40;99.90
27645;DHT22;15054;57.152;-2.118;2022-08-27T16:41:07;16.40;99.90
27645;DHT22;15054;57.152;-2.118;2022-08-27T16:43:35;16.30;99.90
27645;DHT22;15054;57.152;-2.118;2022-08-27T16:46:02;16.30;99.90
27645;DHT22;15054;57.152;-2.118;2022-08-27T16:48:29;16.20;99.90
27645;DHT22;15054;57.152;-2.118;2022-08-27T16:51:32;16.20;99.90
27645;DHT22;15054;57.152;-2.118;2022-08-27T16:54:02;16.30;99.90
27645;DHT22;15054;57.152;-2.118;2022-08-27T16:56:30;16.20;99.90
27645;DHT22;15054;57.152;-2.118;2022-08-27T16:59:03;16.20;99.90
27645;DHT22;15054;57.152;-2.118;2022-08-27T17:01:30;16.20;99.90
27645;DHT22;15054;57.152;-2.118;2022-08-27T17:03:59;16.30;99.90
27645;DHT22;15054;57.152;-2.118;2022-08-27T17:06:44;16.20;99.90
27645;DHT22;15054;57.152;-2.118;2022-08-27T17:09:11;16.10;99.90
27645;DHT22;15054;57.152;-2.118;2022-08-27T17:11:41;16.10;99.90
27645;DHT22;15054;57.152;-2.118;2022-08-27T17:14:09;16.20;99.90
27645;DHT22;15054;57.152;-2.118;2022-08-27T17:16:38;16.10;99.90
27645;DHT22;15054;57.152;-2.118;2022-08-27T17:19:08;16.10;99.90
27645;DHT22;15054;57.152;-2.118;2022-08-27T17:21:43;16.10;99.90
27645;DHT22;15054;57.152;-2.118;2022-08-27T17:24:11;16.00;99.90
27645;DHT22;15054;57.152;-2.118;2022-08-27T17:26:39;16.00;99.90
27645;DHT22;15054;57.152;-2.118;2022-08-27T17:29:06;16.00;99.90
27645;DHT22;15054;57.152;-2.118;2022-08-27T17:31:36;16.10;99.90
27645;DHT22;15054;57.152;-2.118;2022-08-27T17:34:05;16.10;99.90